Time;durP1;ratioP1;P1;durP2;ratioP2;P2;SDS_P1;SDS_P2;PMS_P1;PMS_P2;Temp;Humidity;BMP_temperature;BMP_pressure;BME280_temperature;BME280_humidity;BME280_pressure;Samples;Min_cycle;Max_cycle;Signal;HPM_P1;HPM_P2
2022/01/25 00:09:15;;;;;;;25.83;11.53;;;;;;;-3.36;51.87;101731.81;4474574;32;31822;-77
2022/01/25 00:24:51;;;;;;;31.60;13.77;;;;;;;-3.38;52.25;101731.00;4485690;32;34651;-77
2022/01/25 00:30:21;;;;;;;29.03;12.90;;;;;;;-3.50;52.37;101734.25;4485519;32;34326;-77
2022/01/25 00:32:46;;;;;;;27.00;12.77;;;;;;;-3.56;52.34;101734.53;4485870;32;34021;-77
2022/01/25 00:35:16;;;;;;;24.93;12.60;;;;;;;-3.76;53.24;101730.91;4472548;32;33902;-77
2022/01/25 00:37:47;;;;;;;32.47;13.63;;;;;;;-3.81;52.87;101734.72;4473157;32;34097;-77
2022/01/25 00:40:15;;;;;;;29.07;13.80;;;;;;;-3.92;52.90;101731.66;4459747;32;32022;-77
2022/01/25 00:42:43;;;;;;;31.37;14.37;;;;;;;-3.81;52.77;101732.03;4472301;32;34037;-77
2022/01/25 00:45:15;;;;;;;26.80;13.27;;;;;;;-3.81;52.74;101729.38;4472715;32;34004;-77
2022/01/25 00:47:47;;;;;;;34.80;13.73;;;;;;;-3.74;52.59;101733.53;4459620;32;34017;-77
2022/01/25 00:50:16;;;;;;;31.83;14.10;;;;;;;-3.76;52.43;101725.53;4485463;32;33072;-77
2022/01/25 00:55:12;;;;;;;35.50;15.53;;;;;;;-3.77;52.44;101729.16;4472391;32;32916;-77
2022/01/25 00:57:43;;;;;;;32.37;14.37;;;;;;;-3.83;52.50;101723.19;4485245;32;32400;-76
2022/01/25 01:00:13;;;;;;;28.43;13.40;;;;;;;-3.91;52.47;101710.16;4485399;32;33566;-77
2022/01/25 01:02:41;;;;;;;26.17;12.90;;;;;;;-3.75;52.49;101715.69;4472367;32;32116;-77
2022/01/25 01:05:10;;;;;;;24.83;11.93;;;;;;;-3.97;53.02;101710.41;4486290;32;35250;-77
2022/01/25 01:07:40;;;;;;;29.73;14.43;;;;;;;-3.89;52.82;101707.38;4485277;32;34595;-77
2022/01/25 01:10:09;;;;;;;25.60;12.60;;;;;;;-3.95;52.74;101713.03;4485618;32;33489;-77
2022/01/25 01:15:20;;;;;;;26.20;12.67;;;;;;;-3.63;52.03;101706.22;4472097;32;34003;-77
2022/01/25 01:31:55;;;;;;;29.80;13.17;;;;;;;-4.09;53.09;101685.00;4485192;32;32770;-77
2022/01/25 01:47:44;;;;;;;31.67;12.33;;;;;;;-4.05;52.91;101667.84;4472018;32;32999;-77
2022/01/25 01:50:16;;;;;;;27.58;11.82;;;;;;;-4.16;53.13;101659.41;4479930;32;34000;-77
2022/01/25 01:52:43;;;;;;;24.13;11.90;;;;;;;-4.16;53.00;101655.84;4472669;32;33219;-77
2022/01/25 01:55:14;;;;;;;23.63;11.50;;;;;;;-3.94;52.38;101645.91;4472401;32;34822;-77
2022/01/25 01:57:46;;;;;;;26.93;12.77;;;;;;;-4.03;52.68;101652.56;4446110;32;33315;-77
2022/01/25 02:00:16;;;;;;;29.43;12.67;;;;;;;-3.97;52.62;101646.06;4459390;32;33584;-77
2022/01/25 02:02:44;;;;;;;24.77;11.67;;;;;;;-4.05;52.60;101650.87;4486316;32;33492;-77
2022/01/25 02:05:12;;;;;;;29.53;13.53;;;;;;;-4.07;52.74;101645.59;4446146;32;33738;-77
2022/01/25 02:07:42;;;;;;;27.83;11.13;;;;;;;-4.06;52.61;101646.47;4471756;32;34955;-77
2022/01/25 02:10:10;;;;;;;26.23;12.00;;;;;;;-4.14;52.64;101645.94;4458896;32;33324;-77
2022/01/25 02:12:38;;;;;;;26.83;12.03;;;;;;;-3.96;52.46;101637.06;4472813;32;32830;-77
2022/01/25 02:15:06;;;;;;;23.67;11.67;;;;;;;-3.90;52.28;101631.44;4472561;32;33387;-77
2022/01/25 02:17:54;;;;;;;29.90;13.77;;;;;;;-4.11;52.65;101632.41;4458908;32;32998;-77
2022/01/25 02:23:26;;;;;;;27.03;12.30;;;;;;;-4.02;52.62;101632.84;4452926;32;33499;-77
2022/01/25 02:25:59;;;;;;;26.50;12.57;;;;;;;-4.07;52.74;101634.88;4443817;32;32361;-77
2022/01/25 02:28:38;;;;;;;22.33;11.47;;;;;;;-4.13;52.67;101629.78;4446073;32;33100;-77
2022/01/25 02:31:08;;;;;;;30.77;12.07;;;;;;;-4.17;52.77;101624.62;4458462;32;32783;-77
2022/01/25 02:33:36;;;;;;;27.30;12.80;;;;;;;-4.01;52.54;101620.31;4471589;32;33309;-77
2022/01/25 02:36:08;;;;;;;27.87;13.33;;;;;;;-4.16;52.38;101615.63;4459048;32;33691;-77
2022/01/25 02:38:36;;;;;;;26.37;11.37;;;;;;;-4.04;51.99;101615.97;4458707;32;32911;-76
2022/01/25 02:41:04;;;;;;;24.43;11.80;;;;;;;-4.15;52.46;101612.87;4471614;32;34797;-76
2022/01/25 02:43:35;;;;;;;27.03;12.33;;;;;;;-4.27;52.49;101610.75;4458704;32;34239;-77
2022/01/25 02:48:53;;;;;;;27.40;12.90;;;;;;;-4.26;52.52;101611.62;4458868;32;32855;-77
2022/01/25 02:51:22;;;;;;;;;;;;;;;-4.05;52.01;101602.63;4471623;32;32514;-77
2022/01/25 02:53:49;;;;;;;35.67;18.80;;;;;;;-4.31;52.56;101601.97;4458656;32;33571;-77
2022/01/25 02:56:23;;;;;;;24.80;12.20;;;;;;;-4.25;52.61;101600.84;4485697;32;33728;-77
2022/01/25 02:58:51;;;;;;;31.37;13.00;;;;;;;-4.33;52.83;101603.84;4459088;32;35106;-77
2022/01/25 03:01:21;;;;;;;26.33;13.50;;;;;;;-4.38;52.98;101596.94;4471504;32;33955;-77
2022/01/25 03:03:50;;;;;;;31.57;15.50;;;;;;;-4.13;52.53;101600.28;4471662;32;33338;-77
2022/01/25 03:06:19;;;;;;;28.00;13.63;;;;;;;-4.24;52.64;101599.03;4471413;32;34742;-76
2022/01/25 03:08:48;;;;;;;64.47;25.07;;;;;;;-4.59;54.12;101597.91;4458389;32;32961;-76
2022/01/25 03:11:36;;;;;;;27.67;14.20;;;;;;;-4.31;53.80;101603.78;4485514;32;34846;-77
2022/01/25 03:14:27;;;;;;;21.80;11.00;;;;;;;-4.29;53.68;101591.19;4473515;32;35046;-77
2022/01/25 03:22:13;;;;;;;24.13;11.07;;;;;;;-4.26;53.06;101582.13;4472249;32;34106;-77
2022/01/25 03:24:41;;;;;;;23.50;11.60;;;;;;;-4.36;53.39;101579.88;4485458;32;33509;-77
2022/01/25 03:27:09;;;;;;;23.90;11.33;;;;;;;-4.25;53.72;101575.84;4471100;32;33476;-77
2022/01/25 03:29:39;;;;;;;24.50;11.07;;;;;;;-4.06;53.21;101569.59;4458223;32;33026;-77
2022/01/25 03:32:07;;;;;;;24.47;11.83;;;;;;;-4.22;53.25;101565.84;4458204;32;32558;-77
2022/01/25 03:34:38;;;;;;;25.77;11.23;;;;;;;-4.37;53.60;101574.56;4458443;32;33472;-77
2022/01/25 03:37:05;;;;;;;23.83;12.07;;;;;;;-4.33;53.59;101565.47;4458658;32;34010;-77
2022/01/25 03:39:34;;;;;;;25.03;12.33;;;;;;;-4.40;53.41;101562.19;4445414;32;32931;-77
2022/01/25 03:42:06;;;;;;;21.97;10.70;;;;;;;-4.18;52.92;101561.22;4471842;32;34165;-77
2022/01/25 03:44:40;;;;;;;26.60;11.27;;;;;;;-4.26;53.14;101556.22;4487374;32;34421;-77
2022/01/25 03:47:11;;;;;;;22.30;10.50;;;;;;;-4.32;53.48;101554.66;4457200;32;32293;-77
2022/01/25 03:49:52;;;;;;;21.00;9.63;;;;;;;-4.55;53.56;101551.28;4470568;32;34304;-77
2022/01/25 03:52:27;;;;;;;20.63;10.20;;;;;;;-4.67;54.54;101558.06;4471481;32;34573;-77
2022/01/25 03:54:59;;;;;;;21.47;10.27;;;;;;;-4.51;54.88;101558.22;4457095;32;32829;-77
2022/01/25 03:57:27;;;;;;;22.53;10.63;;;;;;;-4.44;55.08;101546.31;4470057;32;32118;-77
2022/01/25 03:59:59;;;;;;;22.83;10.80;;;;;;;-4.58;55.75;101546.94;4457026;32;33422;-77
2022/01/25 04:02:33;;;;;;;25.83;10.97;;;;;;;-4.35;55.80;101544.09;4444333;32;32441;-77
2022/01/25 04:05:02;;;;;;;22.80;10.67;;;;;;;-4.32;55.97;101530.53;4457262;32;33489;-77
2022/01/25 04:07:44;;;;;;;27.03;11.27;;;;;;;-4.33;56.38;101534.16;4444014;32;31830;-77
2022/01/25 04:10:20;;;;;;;21.20;11.10;;;;;;;-4.04;55.46;101534.66;4469386;32;32852;-77
2022/01/25 04:12:47;;;;;;;33.43;11.10;;;;;;;-3.79;54.97;101524.50;4456936;32;34189;-77
2022/01/25 04:15:18;;;;;;;24.43;9.97;;;;;;;-4.01;55.85;101521.09;4471062;32;33279;-76
2022/01/25 04:17:57;;;;;;;22.77;10.53;;;;;;;-3.85;55.89;101518.53;4469913;32;33656;-77
2022/01/25 04:20:32;;;;;;;25.67;11.93;;;;;;;-3.74;55.94;101521.59;4457215;32;33330;-77
2022/01/25 04:25:45;;;;;;;27.03;11.83;;;;;;;-3.54;55.87;101509.91;4469987;32;33355;-76
2022/01/25 04:28:13;;;;;;;25.13;11.20;;;;;;;-3.44;55.91;101513.88;4470951;32;33520;-77
2022/01/25 04:30:43;;;;;;;22.63;10.33;;;;;;;-3.48;56.29;101505.13;4469764;32;32957;-76
2022/01/25 04:33:25;;;;;;;23.50;10.30;;;;;;;-3.37;56.57;101499.22;4458143;32;32773;-77
2022/01/25 04:36:22;;;;;;;22.03;9.40;;;;;;;-3.28;56.37;101489.84;4457658;32;32128;-77
2022/01/25 04:53:18;;;;;;;26.42;11.30;;;;;;;-2.81;57.36;101474.84;4456624;32;32986;-77
2022/01/25 04:56:22;;;;;;;25.33;11.97;;;;;;;-2.63;56.87;101475.69;4457835;32;33867;-77
2022/01/25 04:59:15;;;;;;;25.07;11.20;;;;;;;-2.70;56.92;101460.84;4456488;32;33191;-77
2022/01/25 05:01:47;;;;;;;21.50;10.67;;;;;;;-2.74;57.38;101470.00;4456406;32;33089;-77
2022/01/25 05:04:31;;;;;;;21.90;11.67;;;;;;;-2.61;57.07;101456.81;4456502;32;33953;-77
2022/01/25 05:07:28;;;;;;;24.17;11.53;;;;;;;-2.63;57.18;101464.94;4444649;32;32560;-77
2022/01/25 05:10:15;;;;;;;26.90;11.17;;;;;;;-2.50;56.88;101457.94;4445750;32;32364;-77
2022/01/25 05:18:37;;;;;;;27.40;13.00;;;;;;;-2.01;55.54;101440.00;4457536;32;33866;-77
2022/01/25 05:24:08;;;;;;;27.53;12.23;;;;;;;-1.95;55.54;101437.91;4456457;32;32376;-78
2022/01/25 05:26:42;;;;;;;30.57;13.47;;;;;;;-1.91;55.21;101420.59;4443482;32;32804;-77
2022/01/25 05:29:15;;;;;;;28.27;13.67;;;;;;;-1.74;54.81;101437.53;4470688;32;34008;-77
2022/01/25 05:31:51;;;;;;;30.85;13.48;;;;;;;-1.64;54.85;101431.62;4443951;32;32410;-77
2022/01/25 05:34:25;;;;;;;33.77;15.27;;;;;;;-1.72;54.88;101441.00;4444086;32;34389;-77
2022/01/25 05:37:03;;;;;;;26.80;13.17;;;;;;;-1.57;54.66;101427.63;4456864;32;35464;-78
2022/01/25 05:39:41;;;;;;;31.40;13.90;;;;;;;-1.69;55.35;101440.84;4470467;32;34787;-77
2022/01/25 05:47:32;;;;;;;40.17;17.73;;;;;;;-1.41;54.95;101423.09;4466308;32;34377;-78
2022/01/25 05:50:09;;;;;;;30.80;12.83;;;;;;;-1.42;54.87;101419.53;4459422;32;32504;-77
2022/01/25 05:52:40;;;;;;;28.00;12.82;;;;;;;-1.47;54.92;101418.94;4446670;32;32151;-86
2022/01/25 05:55:14;;;;;;;26.40;13.57;;;;;;;-1.54;54.93;101416.69;4459839;32;32239;-77
2022/01/25 05:57:44;;;;;;;32.10;13.37;;;;;;;-1.62;55.50;101424.34;4459764;32;35230;-77
2022/01/25 06:00:12;;;;;;;27.73;13.33;;;;;;;-1.15;58.44;101421.50;4459359;32;33829;-76
2022/01/25 06:02:40;;;;;;;28.00;13.10;;;;;;;-1.26;56.60;101419.47;4459292;32;34129;-77
2022/01/25 06:05:12;;;;;;;29.83;13.20;;;;;;;-1.11;55.52;101414.97;4485358;32;33937;-77
2022/01/25 06:07:39;;;;;;;28.40;12.90;;;;;;;-1.21;55.10;101411.09;4471879;32;35188;-78
2022/01/25 06:10:13;;;;;;;28.73;13.03;;;;;;;-1.00;54.36;101421.47;4471610;32;33053;-77
2022/01/25 06:12:46;;;;;;;29.10;12.80;;;;;;;-0.94;54.27;101416.66;4459143;32;32982;-77
2022/01/25 06:15:16;;;;;;;36.77;16.90;;;;;;;-1.05;54.34;101407.41;4471898;32;33938;-77
2022/01/25 06:17:45;;;;;;;29.33;13.80;;;;;;;-1.19;54.56;101418.12;4457683;32;34345;-77
2022/01/25 06:20:13;;;;;;;27.00;12.83;;;;;;;-1.11;54.53;101410.47;4471626;32;34067;-78
2022/01/25 06:22:41;;;;;;;25.87;13.20;;;;;;;-1.16;54.70;101414.41;4459242;32;34239;-77
2022/01/25 06:25:12;;;;;;;27.80;13.03;;;;;;;-1.07;54.46;101408.44;4446107;32;33196;-78
2022/01/25 06:27:45;;;;;;;27.40;13.13;;;;;;;-1.00;54.16;101404.44;4459028;32;35485;-79
2022/01/25 06:30:15;;;;;;;28.10;13.73;;;;;;;-0.94;54.03;101401.38;4445854;32;32354;-78
2022/01/25 06:32:46;;;;;;;31.57;14.03;;;;;;;-0.89;54.12;101398.38;4469512;32;33086;-80
2022/01/25 06:35:19;;;;;;;28.87;13.40;;;;;;;-0.90;54.43;101402.03;4457285;32;33743;-78
2022/01/25 06:37:52;;;;;;;32.57;15.50;;;;;;;-0.80;54.26;101390.63;4458404;32;35677;-78
2022/01/25 06:40:19;;;;;;;31.90;15.33;;;;;;;-0.73;53.88;101394.66;4445529;32;32176;-79
2022/01/25 06:42:51;;;;;;;33.17;15.63;;;;;;;-0.71;53.96;101386.47;4458871;32;33575;-80
2022/01/25 06:45:21;;;;;;;27.70;14.23;;;;;;;-0.61;53.73;101390.31;4445540;32;33469;-79
2022/01/25 06:47:51;;;;;;;53.60;20.17;;;;;;;-0.63;53.76;101392.22;4458915;32;34693;-79
2022/01/25 06:50:22;;;;;;;44.47;19.13;;;;;;;-0.41;53.25;101405.25;4471658;32;33627;-79
2022/01/25 06:52:50;;;;;;;41.73;18.73;;;;;;;-0.60;53.99;101393.88;4458742;32;32002;-78
2022/01/25 06:55:37;;;;;;;39.27;18.87;;;;;;;-0.62;53.86;101399.34;4471316;32;33368;-79
2022/01/25 06:58:05;;;;;;;34.00;16.57;;;;;;;-0.55;53.50;101400.72;4471514;32;34259;-79
2022/01/25 07:00:35;;;;;;;34.40;16.13;;;;;;;-0.50;53.51;101395.03;4458861;32;34654;-79
2022/01/25 07:03:11;;;;;;;33.10;15.27;;;;;;;-0.39;53.41;101389.81;4459285;32;32906;-78
2022/01/25 07:05:43;;;;;;;34.43;15.60;;;;;;;-0.49;53.32;101394.06;4471633;32;33744;-79
2022/01/25 07:08:11;;;;;;;32.37;16.23;;;;;;;-0.67;53.65;101388.88;4445847;32;34007;-78
2022/01/25 07:10:39;;;;;;;32.87;17.23;;;;;;;-0.50;53.55;101389.63;4458577;32;34157;-78
2022/01/25 07:13:06;;;;;;;45.20;20.97;;;;;;;-0.32;53.15;101382.22;4458646;32;34321;-79
2022/01/25 07:15:37;;;;;;;33.83;16.47;;;;;;;-0.44;53.62;101379.31;4457827;32;33580;-79
2022/01/25 07:18:10;;;;;;;35.57;17.20;;;;;;;-0.54;53.98;101378.19;4445645;32;32819;-79
2022/01/25 07:20:38;;;;;;;34.87;17.17;;;;;;;-0.43;53.82;101381.06;4458798;32;34813;-79
2022/01/25 07:23:12;;;;;;;33.20;16.27;;;;;;;-0.37;54.07;101380.69;4459661;32;32942;-79
2022/01/25 07:25:40;;;;;;;31.53;14.83;;;;;;;-0.30;53.95;101391.94;4458615;32;33865;-79
2022/01/25 07:28:08;;;;;;;37.70;16.43;;;;;;;-0.26;53.80;101384.53;4471152;32;35076;-78
2022/01/25 07:30:39;;;;;;;37.83;17.93;;;;;;;-0.13;53.40;101377.38;4471170;32;33825;-78
2022/01/25 07:33:22;;;;;;;31.20;15.80;;;;;;;-0.27;53.74;101375.56;4472640;32;33282;-79
2022/01/25 07:35:52;;;;;;;32.13;17.17;;;;;;;-0.39;53.78;101379.03;4457644;32;33653;-79
2022/01/25 07:38:20;;;;;;;37.77;17.00;;;;;;;-0.38;53.83;101384.34;4445604;32;32898;-79
2022/01/25 07:40:50;;;;;;;38.90;18.73;;;;;;;-0.19;53.55;101380.47;4471611;32;34877;-78
2022/01/25 07:43:23;;;;;;;33.73;17.13;;;;;;;-0.37;54.38;101386.06;4460117;32;33334;-80
2022/01/25 07:45:54;;;;;;;32.80;16.27;;;;;;;-0.10;53.68;101382.56;4471253;32;34490;-79
2022/01/25 07:48:34;;;;;;;34.43;16.87;;;;;;;-0.04;53.41;101380.34;4456709;32;34539;-79
2022/01/25 07:51:10;;;;;;;33.58;16.80;;;;;;;-0.04;53.95;101388.44;4432006;32;32259;-78
2022/01/25 07:53:38;;;;;;;35.63;17.80;;;;;;;-0.10;54.00;101383.44;4455246;32;32840;-79
2022/01/25 07:56:08;;;;;;;40.17;18.20;;;;;;;-0.02;53.96;101385.66;4442877;32;32222;-79
2022/01/25 07:58:36;;;;;;;36.47;19.07;;;;;;;0.10;53.65;101384.81;4444264;32;34287;-78
2022/01/25 08:01:07;;;;;;;45.43;21.37;;;;;;;0.32;53.10;101379.72;4443101;32;34511;-79
2022/01/25 08:03:38;;;;;;;49.80;22.87;;;;;;;0.27;53.27;101383.72;4442793;32;33864;-79
2022/01/25 08:06:10;;;;;;;48.13;22.23;;;;;;;0.14;53.75;101380.09;4443170;32;33631;-79
2022/01/25 08:08:56;;;;;;;45.53;21.07;;;;;;;-0.05;54.61;101380.44;4443923;32;34355;-79
2022/01/25 08:11:37;;;;;;;50.33;25.40;;;;;;;-0.04;54.87;101374.09;4456395;32;34057;-79
2022/01/25 08:14:44;;;;;;;37.10;16.50;;;;;;;0.02;55.02;101368.25;4446439;32;33601;-79
2022/01/25 08:17:44;;;;;;;43.10;20.67;;;;;;;0.11;55.26;101375.75;4445637;32;32395;-79
2022/01/25 08:20:44;;;;;;;36.37;15.83;;;;;;;0.35;55.15;101364.28;4437905;32;34006;-79
2022/01/25 08:23:18;;;;;;;33.28;16.90;;;;;;;0.32;55.36;101366.22;4455291;32;34535;-78
2022/01/25 08:26:18;;;;;;;37.30;16.80;;;;;;;0.19;55.90;101359.03;4441739;32;31862;-79
2022/01/25 08:28:56;;;;;;;28.67;15.53;;;;;;;0.22;56.21;101348.91;4445727;32;34542;-79
2022/01/25 08:31:39;;;;;;;37.70;16.83;;;;;;;0.45;55.82;101341.09;4445349;32;32826;-79
2022/01/25 08:34:29;;;;;;;33.33;16.43;;;;;;;0.29;56.75;101352.06;4455523;32;34823;-79
2022/01/25 08:37:09;;;;;;;34.93;16.97;;;;;;;0.42;56.52;101341.31;4469831;32;32395;-79
2022/01/25 08:40:06;;;;;;;31.97;15.27;;;;;;;0.53;56.62;101346.84;4456830;32;33125;-79
2022/01/25 08:42:52;;;;;;;35.13;16.53;;;;;;;0.64;56.59;101347.00;4459160;32;34352;-79
2022/01/25 08:45:29;;;;;;;37.37;18.07;;;;;;;0.62;56.79;101341.69;4469911;32;33935;-79
2022/01/25 08:48:14;;;;;;;33.73;15.37;;;;;;;0.88;56.18;101336.31;4458682;32;31761;-79
2022/01/25 08:51:02;;;;;;;33.73;15.27;;;;;;;1.01;56.04;101330.91;4444901;32;32306;-79
2022/01/25 08:53:56;;;;;;;33.63;15.17;;;;;;;1.14;55.68;101335.34;4443163;32;32968;-79
2022/01/25 08:56:28;;;;;;;29.47;13.87;;;;;;;0.99;56.17;101342.69;4440314;32;32503;-79
2022/01/25 08:59:22;;;;;;;30.30;14.40;;;;;;;0.97;56.85;101335.66;4406988;32;32282;-79
2022/01/25 09:01:52;;;;;;;30.73;15.05;;;;;;;1.14;56.55;101339.91;4440872;32;34867;-79
2022/01/25 09:04:21;;;;;;;29.53;15.33;;;;;;;1.37;56.23;101341.81;4427524;32;33111;-79
2022/01/25 09:06:52;;;;;;;32.43;14.73;;;;;;;1.26;57.22;101337.19;4440332;32;33784;-79
2022/01/25 09:09:23;;;;;;;32.40;14.43;;;;;;;1.11;57.72;101335.56;4440147;32;34096;-79
2022/01/25 09:11:56;;;;;;;33.30;14.57;;;;;;;1.43;57.28;101344.06;4440235;32;34351;-80
2022/01/25 09:14:24;;;;;;;30.40;14.83;;;;;;;1.42;57.66;101346.88;4427944;32;34107;-80
2022/01/25 09:16:57;;;;;;;37.17;16.35;;;;;;;1.42;57.92;101342.34;4439866;32;33470;-80
2022/01/25 09:19:30;;;;;;;32.03;14.98;;;;;;;1.64;57.46;101342.53;4440060;32;33741;-80
2022/01/25 09:22:00;;;;;;;35.60;16.07;;;;;;;1.51;57.92;101341.69;4439647;32;33207;-80
2022/01/25 09:24:28;;;;;;;35.42;17.55;;;;;;;1.61;57.86;101345.47;4437576;32;35172;-79
2022/01/25 09:26:57;;;;;;;31.23;14.70;;;;;;;1.80;57.65;101339.56;4446275;32;33418;-80
2022/01/25 09:29:36;;;;;;;32.67;14.80;;;;;;;1.90;57.20;101339.78;4459815;32;33178;-80
2022/01/25 09:32:04;;;;;;;34.08;15.75;;;;;;;1.72;58.07;101333.00;4459131;32;33580;-79
2022/01/25 09:34:32;;;;;;;34.00;16.10;;;;;;;1.86;58.17;101328.31;4471995;32;32878;-79
2022/01/25 09:37:04;;;;;;;33.13;16.10;;;;;;;1.79;57.72;101327.03;4459089;32;33755;-80
2022/01/25 09:39:35;;;;;;;31.05;14.98;;;;;;;1.91;57.59;101330.66;4458318;32;31900;-79
2022/01/25 09:42:08;;;;;;;34.10;17.33;;;;;;;1.90;57.49;101320.81;4459244;32;33895;-79
2022/01/25 09:44:38;;;;;;;32.45;15.57;;;;;;;1.79;57.62;101312.63;4472868;32;34690;-79
2022/01/25 09:47:06;;;;;;;35.72;17.08;;;;;;;1.91;57.69;101309.00;4471818;32;33956;-79
2022/01/25 09:49:36;;;;;;;32.70;16.10;;;;;;;1.92;57.55;101302.63;4459770;32;33863;-79
2022/01/25 09:52:06;;;;;;;30.95;15.50;;;;;;;1.80;58.14;101303.53;4472106;32;33635;-79
2022/01/25 09:54:36;;;;;;;53.92;24.95;;;;;;;1.97;58.18;101311.22;4459660;32;35294;-78
2022/01/25 09:57:08;;;;;;;38.03;16.80;;;;;;;2.09;58.74;101312.16;4472149;32;33671;-78
2022/01/25 09:59:37;;;;;;;39.72;16.62;;;;;;;1.97;59.19;101298.56;4472684;32;33231;-78
2022/01/25 10:02:07;;;;;;;34.78;16.87;;;;;;;2.08;58.24;101292.34;4472361;32;33688;-78
2022/01/25 10:04:44;;;;;;;32.15;15.55;;;;;;;2.48;56.94;101292.91;4459573;32;34619;-79
2022/01/25 10:07:12;;;;;;;31.95;15.20;;;;;;;2.70;56.50;101293.91;4459271;32;32380;-79
2022/01/25 10:09:42;;;;;;;33.78;14.85;;;;;;;2.57;57.63;101294.03;4472180;32;33252;-79
2022/01/25 10:12:19;;;;;;;31.40;15.55;;;;;;;2.49;57.62;101289.22;4471802;32;33128;-79
2022/01/25 10:14:59;;;;;;;33.47;16.45;;;;;;;2.36;57.78;101279.44;4471973;32;34298;-79
2022/01/25 10:17:34;;;;;;;43.35;20.40;;;;;;;2.36;58.39;101280.28;4471813;32;32528;-78
2022/01/25 10:20:03;;;;;;;40.53;18.55;;;;;;;1.95;62.27;101278.03;4471786;32;32737;-78
2022/01/25 10:22:47;;;;;;;33.35;17.02;;;;;;;2.67;60.38;101283.31;4471918;32;33672;-79
2022/01/25 10:25:34;;;;;;;31.42;16.62;;;;;;;2.95;57.78;101277.47;4472243;32;34246;-79
2022/01/25 10:28:11;;;;;;;31.75;16.20;;;;;;;3.14;56.94;101263.31;4471627;32;33918;-79
2022/01/25 10:30:49;;;;;;;34.33;17.08;;;;;;;3.05;57.15;101267.63;4459640;32;33208;-79
2022/01/25 10:33:29;;;;;;;34.92;16.73;;;;;;;3.15;56.71;101274.03;4471893;32;32351;-79
2022/01/25 10:36:20;;;;;;;46.03;21.25;;;;;;;3.10;57.40;101268.13;4447226;32;32933;-79
2022/01/25 10:38:57;;;;;;;32.22;16.60;;;;;;;3.23;57.63;101257.16;4471762;32;34705;-79
2022/01/25 10:41:27;;;;;;;33.95;16.35;;;;;;;3.48;56.37;101256.00;4471801;32;32826;-79
2022/01/25 10:43:59;;;;;;;36.92;17.27;;;;;;;3.52;55.95;101252.91;4471847;32;34441;-79
2022/01/25 10:46:31;;;;;;;36.15;16.95;;;;;;;3.39;56.13;101254.91;4471574;32;34461;-79
2022/01/25 10:49:13;;;;;;;33.90;17.50;;;;;;;3.58;55.36;101248.84;4471647;32;32923;-79
2022/01/25 10:51:46;;;;;;;36.70;17.50;;;;;;;3.66;55.57;101246.34;4472130;32;31731;-79
2022/01/25 10:54:24;;;;;;;37.13;17.70;;;;;;;3.59;55.54;101243.28;4472343;32;32258;-79
2022/01/25 10:56:57;;;;;;;36.60;18.27;;;;;;;3.90;55.14;101240.75;4472034;32;34562;-79
2022/01/25 10:59:33;;;;;;;31.80;15.88;;;;;;;3.96;55.14;101237.50;4460063;32;33997;-79
2022/01/25 11:02:10;;;;;;;36.33;17.95;;;;;;;4.01;54.97;101237.97;4460603;32;34164;-79
2022/01/25 11:04:41;;;;;;;31.85;17.17;;;;;;;3.85;55.19;101246.56;4471798;32;34268;-79
2022/01/25 11:07:14;;;;;;;33.42;15.75;;;;;;;3.65;55.89;101228.34;4459329;32;32903;-79
2022/01/25 11:09:47;;;;;;;35.47;16.83;;;;;;;4.04;55.00;101242.28;4459627;32;32411;-79
2022/01/25 11:12:19;;;;;;;33.20;17.15;;;;;;;4.00;55.22;101241.69;4471721;32;33485;-79
2022/01/25 11:14:57;;;;;;;30.25;17.05;;;;;;;4.13;54.68;101231.50;4458801;32;32151;-79
2022/01/25 11:17:34;;;;;;;33.25;17.92;;;;;;;4.09;54.61;101230.03;4472214;32;34589;-79
2022/01/25 11:20:03;;;;;;;34.25;16.73;;;;;;;4.09;53.84;101224.59;4471014;32;32420;-79
2022/01/25 11:22:37;;;;;;;31.73;17.35;;;;;;;4.37;53.38;101223.13;4471024;32;31933;-79
2022/01/25 11:25:09;;;;;;;31.23;16.70;;;;;;;4.39;53.30;101225.72;4471103;32;34466;-79
2022/01/25 11:27:44;;;;;;;31.37;17.02;;;;;;;4.10;54.00;101229.03;4458267;32;32439;-79
2022/01/25 11:30:19;;;;;;;35.53;16.77;;;;;;;4.23;53.61;101210.72;4471078;32;34114;-79
2022/01/25 11:32:50;;;;;;;49.25;22.60;;;;;;;4.07;54.16;101206.72;4471052;32;32159;-80
2022/01/25 11:35:20;;;;;;;43.33;20.60;;;;;;;4.22;54.49;101203.56;4470977;32;32188;-80
2022/01/25 11:37:50;;;;;;;56.85;28.23;;;;;;;4.19;55.18;101213.81;4470869;32;33823;-79
2022/01/25 11:40:37;;;;;;;36.25;19.02;;;;;;;3.92;56.28;101209.72;4458268;32;34657;-80
2022/01/25 11:43:10;;;;;;;32.75;16.98;;;;;;;4.18;54.73;101191.22;4445725;32;32710;-80
2022/01/25 11:45:50;;;;;;;35.17;17.02;;;;;;;4.30;54.46;101189.31;4471102;32;34643;-80
2022/01/25 11:48:35;;;;;;;31.60;16.52;;;;;;;4.53;54.12;101193.63;4470687;32;35433;-79
2022/01/25 11:51:30;;;;;;;33.38;16.65;;;;;;;4.66;53.68;101196.09;4470984;32;34382;-79
2022/01/25 11:54:04;;;;;;;33.97;17.25;;;;;;;4.60;53.70;101200.22;4470541;32;33034;-79
2022/01/25 11:56:42;;;;;;;29.37;16.40;;;;;;;4.75;53.23;101203.47;4458843;32;33719;-79
2022/01/25 11:59:17;;;;;;;34.45;17.10;;;;;;;4.79;52.87;101196.75;4471356;32;33428;-79
2022/01/25 12:01:52;;;;;;;34.08;16.85;;;;;;;4.52;53.93;101199.19;4457820;32;34415;-79
2022/01/25 12:04:20;;;;;;;34.90;17.23;;;;;;;4.46;54.10;101202.44;4472945;32;34232;-79
2022/01/25 12:07:01;;;;;;;33.72;17.92;;;;;;;4.58;54.30;101190.47;4472415;32;32248;-79
2022/01/25 12:09:47;;;;;;;32.83;17.45;;;;;;;4.79;53.50;101175.00;4460114;32;32977;-79
2022/01/25 12:12:18;;;;;;;34.13;17.92;;;;;;;4.68;53.82;101171.50;4472210;32;32325;-79
2022/01/25 12:14:51;;;;;;;36.03;17.33;;;;;;;4.63;53.94;101171.91;4460004;32;32215;-79
2022/01/25 12:17:25;;;;;;;41.15;20.58;;;;;;;4.78;53.80;101162.41;4485777;32;34643;-79
2022/01/25 12:20:06;;;;;;;28.75;12.63;;;;;;;4.57;54.26;101156.97;4460044;32;34083;-75
2022/01/25 12:22:38;;;;;;;39.78;19.00;;;;;;;4.85;62.01;101166.28;4472706;32;33816;-79
2022/01/25 12:27:42;;;;;;;35.45;18.25;;;;;;;4.58;54.79;101157.84;4486287;31;33747;-80
2022/01/25 12:30:53;;;;;;;38.17;17.58;;;;;;;4.80;54.56;101154.97;4501628;31;34552;-79
2022/01/25 12:33:29;;;;;;;31.23;16.50;;;;;;;4.48;55.41;101146.94;4472319;32;32959;-79
2022/01/25 12:36:00;;;;;;;33.65;18.87;;;;;;;4.74;55.44;101149.19;4473508;32;33296;-79
2022/01/25 12:38:46;;;;;;;33.28;17.30;;;;;;;4.81;54.92;101139.50;4472655;32;33970;-79
2022/01/25 12:41:31;;;;;;;31.17;16.45;;;;;;;4.69;54.38;101133.28;4472735;32;34696;-79
2022/01/25 12:44:07;;;;;;;33.00;16.55;;;;;;;4.83;54.40;101137.50;4460177;32;32573;-80
2022/01/25 12:46:40;;;;;;;32.25;16.67;;;;;;;4.88;54.10;101129.81;4473727;32;34199;-79
2022/01/25 12:49:16;;;;;;;29.73;16.17;;;;;;;5.02;54.06;101128.56;4447140;32;32275;-79
2022/01/25 12:51:52;;;;;;;32.20;16.73;;;;;;;5.03;54.36;101128.44;4461363;32;33131;-79
2022/01/25 12:54:25;;;;;;;35.97;18.48;;;;;;;5.22;54.03;101133.91;4475501;32;34148;-80
2022/01/25 12:56:55;;;;;;;31.80;17.02;;;;;;;4.84;54.63;101131.94;4460023;32;33358;-80
2022/01/25 12:59:29;;;;;;;36.08;17.15;;;;;;;4.83;54.70;101132.06;4461101;32;33547;-80
2022/01/25 13:02:02;;;;;;;32.15;17.23;;;;;;;5.05;54.05;101125.56;4475131;32;35266;-80
2022/01/25 13:04:32;;;;;;;39.42;19.80;;;;;;;4.97;54.10;101124.41;4459831;32;34625;-80
2022/01/25 13:07:00;;;;;;;39.08;19.55;;;;;;;4.91;54.98;101113.22;4460122;32;33271;-80
2022/01/25 13:09:33;;;;;;;36.20;17.58;;;;;;;4.94;54.82;101119.25;4471350;32;33478;-80
2022/01/25 13:17:12;;;;;;;37.40;19.15;;;;;;;4.82;54.50;101112.19;4475731;31;33443;-80
2022/01/25 13:19:51;;;;;;;35.42;18.50;;;;;;;4.74;54.58;101092.97;4473615;31;33701;-80
2022/01/25 13:22:30;;;;;;;34.00;17.60;;;;;;;4.63;54.80;101098.50;4487604;31;34581;-80
2022/01/25 13:25:13;;;;;;;37.17;18.30;;;;;;;4.80;54.70;101092.41;4482026;31;33756;-80
2022/01/25 13:27:53;;;;;;;37.30;18.05;;;;;;;4.54;56.05;101088.47;4462049;31;31658;-80
2022/01/25 13:30:45;;;;;;;38.33;20.98;;;;;;;4.48;56.03;101078.13;4487732;31;34489;-83
2022/01/25 13:33:19;;;;;;;36.38;18.73;;;;;;;4.70;55.65;101093.38;4470755;31;32945;-80